sensor_id;sensor_type;location;lat;lon;timestamp;pressure;altitude;pressure_sealevel;temperature;humidity
58771;BME280;44539;42.962;1.596;2023-01-25T08:00:15;98312.25;;;-2.98;100.00
58771;BME280;44539;42.962;1.596;2023-01-25T08:02:41;98323.72;;;-3.03;100.00
58771;BME280;44539;42.962;1.596;2023-01-25T08:05:07;98316.66;;;-3.00;100.00
58771;BME280;44539;42.962;1.596;2023-01-25T08:07:33;98316.81;;;-2.82;100.00
58771;BME280;44539;42.962;1.596;2023-01-25T08:09:58;98315.91;;;-2.81;100.00
58771;BME280;44539;42.962;1.596;2023-01-25T08:12:24;98306.81;;;-2.71;100.00
58771;BME280;44539;42.962;1.596;2023-01-25T08:14:52;98305.97;;;-2.72;100.00
58771;BME280;44539;42.962;1.596;2023-01-25T08:17:17;98307.91;;;-2.56;100.00
58771;BME280;44539;42.962;1.596;2023-01-25T08:19:42;98301.75;;;-2.54;100.00
58771;BME280;44539;42.962;1.596;2023-01-25T08:22:08;98298.81;;;-2.46;100.00
58771;BME280;44539;42.962;1.596;2023-01-25T08:24:33;98294.19;;;-2.39;100.00
58771;BME280;44539;42.962;1.596;2023-01-25T08:26:59;98284.81;;;-2.23;100.00
58771;BME280;44539;42.962;1.596;2023-01-25T08:29:24;98289.84;;;-2.20;100.00
58771;BME280;44539;42.962;1.596;2023-01-25T08:31:52;98287.91;;;-2.15;100.00
58771;BME280;44539;42.962;1.596;2023-01-25T08:34:17;98289.09;;;-2.03;100.00
58771;BME280;44539;42.962;1.596;2023-01-25T08:36:43;98292.22;;;-1.95;100.00
58771;BME280;44539;42.962;1.596;2023-01-25T08:39:10;98299.69;;;-1.87;100.00
58771;BME280;44539;42.962;1.596;2023-01-25T08:41:36;98298.44;;;-1.78;100.00
58771;BME280;44539;42.962;1.596;2023-01-25T08:44:02;98297.38;;;-1.74;100.00
58771;BME280;44539;42.962;1.596;2023-01-25T08:46:29;98297.88;;;-1.66;100.00
58771;BME280;44539;42.962;1.596;2023-01-25T08:48:56;98299.19;;;-1.57;100.00
58771;BME280;44539;42.962;1.596;2023-01-25T08:51:23;98306.28;;;-1.42;100.00
58771;BME280;44539;42.962;1.596;2023-01-25T08:53:48;98298.81;;;-1.31;100.00
58771;BME280;44539;42.962;1.596;2023-01-25T08:56:15;98302.81;;;-1.24;100.00
58771;BME280;44539;42.962;1.596;2023-01-25T08:58:43;98301.91;;;-1.23;100.00
58771;BME280;44539;42.962;1.596;2023-01-25T09:01:10;98299.56;;;-1.29;100.00
58771;BME280;44539;42.962;1.596;2023-01-25T09:03:38;98304.69;;;-1.08;100.00
58771;BME280;44539;42.962;1.596;2023-01-25T09:06:04;98299.94;;;-1.00;100.00
58771;BME280;44539;42.962;1.596;2023-01-25T09:08:30;98297.94;;;-0.95;100.00
58771;BME280;44539;42.962;1.596;2023-01-25T09:11:03;98290.38;;;-0.82;100.00
58771;BME280;44539;42.962;1.596;2023-01-25T09:13:29;98287.91;;;-0.68;100.00
58771;BME280;44539;42.962;1.596;2023-01-25T09:29:25;98312.28;;;-0.16;100.00
58771;BME280;44539;42.962;1.596;2023-01-25T09:31:50;98305.44;;;-0.19;99.70
58771;BME280;44539;42.962;1.596;2023-01-25T09:34:16;98309.19;;;-0.07;100.00
58771;BME280;44539;42.962;1.596;2023-01-25T09:36:42;98309.94;;;-0.05;100.00
58771;BME280;44539;42.962;1.596;2023-01-25T09:39:09;98315.69;;;0.02;100.00
58771;BME280;44539;42.962;1.596;2023-01-25T09:44:40;98304.91;;;0.08;100.00
58771;BME280;44539;42.962;1.596;2023-01-25T09:54:46;98292.97;;;0.19;100.00
58771;BME280;44539;42.962;1.596;2023-01-25T09:57:18;98298.97;;;0.22;100.00
58771;BME280;44539;42.962;1.596;2023-01-25T09:59:47;98297.00;;;0.25;100.00
58771;BME280;44539;42.962;1.596;2023-01-25T10:02:30;98307.56;;;0.24;100.00
58771;BME280;44539;42.962;1.596;2023-01-25T10:05:07;98302.00;;;0.30;100.00
58771;BME280;44539;42.962;1.596;2023-01-25T10:10:41;98303.44;;;0.19;100.00
58771;BME280;44539;42.962;1.596;2023-01-25T10:13:13;98301.22;;;0.28;100.00
58771;BME280;44539;42.962;1.596;2023-01-25T10:15:42;98293.75;;;0.22;100.00
58771;BME280;44539;42.962;1.596;2023-01-25T10:24:04;98286.75;;;0.38;100.00
58771;BME280;44539;42.962;1.596;2023-01-25T10:26:34;98283.28;;;0.37;100.00
58771;BME280;44539;42.962;1.596;2023-01-25T10:29:22;98284.06;;;0.39;100.00
58771;BME280;44539;42.962;1.596;2023-01-25T10:31:52;98270.56;;;0.47;100.00
58771;BME280;44539;42.962;1.596;2023-01-25T10:34:22;98264.06;;;0.54;100.00
58771;BME280;44539;42.962;1.596;2023-01-25T10:36:53;98264.47;;;0.47;100.00
58771;BME280;44539;42.962;1.596;2023-01-25T10:39:20;98259.19;;;0.48;100.00
58771;BME280;44539;42.962;1.596;2023-01-25T10:42:06;98259.03;;;0.51;100.00
58771;BME280;44539;42.962;1.596;2023-01-25T10:44:34;98255.19;;;0.57;100.00
58771;BME280;44539;42.962;1.596;2023-01-25T10:47:06;98257.91;;;0.55;100.00
58771;BME280;44539;42.962;1.596;2023-01-25T10:52:33;98247.44;;;0.55;100.00
58771;BME280;44539;42.962;1.596;2023-01-25T10:55:19;98248.72;;;0.64;100.00
58771;BME280;44539;42.962;1.596;2023-01-25T10:57:52;98239.59;;;0.55;100.00
58771;BME280;44539;42.962;1.596;2023-01-25T11:00:35;98235.53;;;0.66;100.00
58771;BME280;44539;42.962;1.596;2023-01-25T11:03:02;98230.16;;;0.69;100.00
58771;BME280;44539;42.962;1.596;2023-01-25T11:05:37;98219.28;;;0.60;100.00
58771;BME280;44539;42.962;1.596;2023-01-25T11:10:47;98209.41;;;0.66;98.70
58771;BME280;44539;42.962;1.596;2023-01-25T11:45:01;98149.09;;;1.13;96.12
58771;BME280;44539;42.962;1.596;2023-01-25T11:50:32;98138.44;;;1.16;97.21
58771;BME280;44539;42.962;1.596;2023-01-25T11:58:50;98123.50;;;1.33;97.22
58771;BME280;44539;42.962;1.596;2023-01-25T12:10:06;98099.66;;;1.37;96.07
58771;BME280;44539;42.962;1.596;2023-01-25T12:27:10;98071.88;;;1.49;95.35
58771;BME280;44539;42.962;1.596;2023-01-25T12:29:44;98072.13;;;1.59;95.72
58771;BME280;44539;42.962;1.596;2023-01-25T12:32:29;98074.00;;;1.57;96.78
58771;BME280;44539;42.962;1.596;2023-01-25T12:35:33;98062.63;;;1.43;96.35
58771;BME280;44539;42.962;1.596;2023-01-25T12:38:04;98053.75;;;1.46;96.77
58771;BME280;44539;42.962;1.596;2023-01-25T12:40:57;98054.19;;;1.53;97.23
58771;BME280;44539;42.962;1.596;2023-01-25T12:43:32;98064.50;;;1.27;97.50
58771;BME280;44539;42.962;1.596;2023-01-25T12:46:23;98061.16;;;1.11;97.08
58771;BME280;44539;42.962;1.596;2023-01-25T12:48:51;98061.81;;;1.00;97.04
58771;BME280;44539;42.962;1.596;2023-01-25T12:51:19;98049.19;;;1.07;96.94
58771;BME280;44539;42.962;1.596;2023-01-25T12:53:46;98038.72;;;1.07;97.55
58771;BME280;44539;42.962;1.596;2023-01-25T12:56:30;98039.38;;;1.10;97.38
58771;BME280;44539;42.962;1.596;2023-01-25T12:59:16;98031.63;;;1.09;98.22
58771;BME280;44539;42.962;1.596;2023-01-25T13:02:02;98023.41;;;1.15;97.68
58771;BME280;44539;42.962;1.596;2023-01-25T13:07:16;98018.16;;;1.15;97.36
58771;BME280;44539;42.962;1.596;2023-01-25T13:09:56;98019.38;;;1.23;96.17
58771;BME280;44539;42.962;1.596;2023-01-25T13:12:23;98010.88;;;1.20;98.05
58771;BME280;44539;42.962;1.596;2023-01-25T13:14:49;98015.31;;;1.32;96.79
58771;BME280;44539;42.962;1.596;2023-01-25T13:19:52;98010.59;;;1.25;96.88
58771;BME280;44539;42.962;1.596;2023-01-25T13:27:42;98006.75;;;1.30;96.91
58771;BME280;44539;42.962;1.596;2023-01-25T13:33:05;98006.75;;;1.30;96.69
58771;BME280;44539;42.962;1.596;2023-01-25T13:35:41;98001.41;;;1.32;97.84
58771;BME280;44539;42.962;1.596;2023-01-25T13:40:37;98000.78;;;1.28;97.10
58771;BME280;44539;42.962;1.596;2023-01-25T13:45:34;98003.56;;;1.25;97.19
58771;BME280;44539;42.962;1.596;2023-01-25T13:50:32;98008.50;;;1.30;98.50
58771;BME280;44539;42.962;1.596;2023-01-25T13:53:03;98004.38;;;1.40;96.97
58771;BME280;44539;42.962;1.596;2023-01-25T13:55:41;98007.53;;;1.45;97.78
58771;BME280;44539;42.962;1.596;2023-01-25T14:01:04;98015.59;;;1.42;97.66
58771;BME280;44539;42.962;1.596;2023-01-25T14:03:43;98003.91;;;1.48;97.85
58771;BME280;44539;42.962;1.596;2023-01-25T14:06:39;98019.31;;;1.52;97.66
58771;BME280;44539;42.962;1.596;2023-01-25T14:09:11;98015.97;;;1.36;97.92
58771;BME280;44539;42.962;1.596;2023-01-25T14:12:08;98009.72;;;1.38;97.47
58771;BME280;44539;42.962;1.596;2023-01-25T14:14:36;98014.41;;;1.19;98.45
58771;BME280;44539;42.962;1.596;2023-01-25T14:17:17;98018.91;;;1.31;97.26
58771;BME280;44539;42.962;1.596;2023-01-25T14:19:47;98024.22;;;1.30;98.17
58771;BME280;44539;42.962;1.596;2023-01-25T14:22:27;98021.59;;;1.30;98.48
58771;BME280;44539;42.962;1.596;2023-01-25T14:32:42;98034.59;;;1.17;98.59
58771;BME280;44539;42.962;1.596;2023-01-25T14:37:51;98021.06;;;1.10;97.84
58771;BME280;44539;42.962;1.596;2023-01-25T14:40:19;98023.88;;;1.07;98.35
58771;BME280;44539;42.962;1.596;2023-01-25T14:42:50;98012.19;;;1.13;98.56
58771;BME280;44539;42.962;1.596;2023-01-25T14:45:17;98014.78;;;1.13;99.06
58771;BME280;44539;42.962;1.596;2023-01-25T14:47:44;98020.78;;;1.15;98.84
58771;BME280;44539;42.962;1.596;2023-01-25T14:50:37;98018.00;;;1.04;98.17
58771;BME280;44539;42.962;1.596;2023-01-25T14:53:21;98015.00;;;1.10;97.02
58771;BME280;44539;42.962;1.596;2023-01-25T14:55:48;98012.56;;;1.07;98.47
58771;BME280;44539;42.962;1.596;2023-01-25T14:58:20;98018.53;;;1.09;97.60
58771;BME280;44539;42.962;1.596;2023-01-25T15:01:00;98008.56;;;1.01;96.02
58771;BME280;44539;42.962;1.596;2023-01-25T15:03:28;98008.06;;;1.09;97.23
58771;BME280;44539;42.962;1.596;2023-01-25T15:05:56;98014.34;;;1.06;97.91
58771;BME280;44539;42.962;1.596;2023-01-25T15:08:33;98017.78;;;1.07;96.17
58771;BME280;44539;42.962;1.596;2023-01-25T15:10:59;98014.06;;;1.11;96.76
58771;BME280;44539;42.962;1.596;2023-01-25T15:13:45;98026.13;;;1.13;97.42
58771;BME280;44539;42.962;1.596;2023-01-25T15:16:11;98029.00;;;1.09;96.37
58771;BME280;44539;42.962;1.596;2023-01-25T15:21:08;98018.66;;;1.07;96.85
58771;BME280;44539;42.962;1.596;2023-01-25T15:23:34;98015.00;;;0.95;97.44
58771;BME280;44539;42.962;1.596;2023-01-25T15:26:00;98007.25;;;0.94;98.35
58771;BME280;44539;42.962;1.596;2023-01-25T15:28:28;98010.44;;;0.85;98.75
58771;BME280;44539;42.962;1.596;2023-01-25T15:30:54;97998.19;;;0.85;98.91
58771;BME280;44539;42.962;1.596;2023-01-25T15:33:23;98008.84;;;0.82;99.69
58771;BME280;44539;42.962;1.596;2023-01-25T15:35:50;98008.75;;;0.84;100.00
58771;BME280;44539;42.962;1.596;2023-01-25T15:38:16;98000.91;;;0.84;100.00
58771;BME280;44539;42.962;1.596;2023-01-25T15:40:42;98005.09;;;0.86;100.00
58771;BME280;44539;42.962;1.596;2023-01-25T15:43:12;98010.44;;;0.85;100.00
58771;BME280;44539;42.962;1.596;2023-01-25T15:45:47;98005.19;;;0.85;100.00
58771;BME280;44539;42.962;1.596;2023-01-25T15:48:15;98001.28;;;0.92;100.00
58771;BME280;44539;42.962;1.596;2023-01-25T15:50:42;98009.97;;;0.92;99.84
58771;BME280;44539;42.962;1.596;2023-01-25T15:53:14;98006.78;;;0.87;100.00
58771;BME280;44539;42.962;1.596;2023-01-25T15:55:41;98005.84;;;0.88;100.00
58771;BME280;44539;42.962;1.596;2023-01-25T15:58:10;98008.47;;;0.88;100.00
58771;BME280;44539;42.962;1.596;2023-01-25T16:00:38;98011.00;;;0.90;100.00
58771;BME280;44539;42.962;1.596;2023-01-25T16:03:03;98013.25;;;0.81;100.00
58771;BME280;44539;42.962;1.596;2023-01-25T16:05:30;98017.44;;;0.84;100.00
58771;BME280;44539;42.962;1.596;2023-01-25T16:07:55;98016.31;;;0.88;99.57
58771;BME280;44539;42.962;1.596;2023-01-25T16:10:23;98015.94;;;0.80;99.53
58771;BME280;44539;42.962;1.596;2023-01-25T16:12:49;98008.09;;;0.80;99.70
58771;BME280;44539;42.962;1.596;2023-01-25T16:15:15;98024.53;;;0.82;99.24
58771;BME280;44539;42.962;1.596;2023-01-25T16:17:40;98016.97;;;0.77;99.79
58771;BME280;44539;42.962;1.596;2023-01-25T16:20:06;98027.22;;;0.80;100.00
58771;BME280;44539;42.962;1.596;2023-01-25T16:22:32;98026.59;;;0.77;100.00
58771;BME280;44539;42.962;1.596;2023-01-25T16:24:58;98024.91;;;0.76;100.00
58771;BME280;44539;42.962;1.596;2023-01-25T16:27:25;98025.66;;;0.78;100.00
58771;BME280;44539;42.962;1.596;2023-01-25T16:29:59;98022.94;;;0.65;100.00
58771;BME280;44539;42.962;1.596;2023-01-25T16:32:26;98029.47;;;0.72;100.00
58771;BME280;44539;42.962;1.596;2023-01-25T16:34:51;98028.81;;;0.69;100.00
58771;BME280;44539;42.962;1.596;2023-01-25T16:37:17;98030.13;;;0.76;100.00
58771;BME280;44539;42.962;1.596;2023-01-25T16:39:43;98034.88;;;0.69;100.00
58771;BME280;44539;42.962;1.596;2023-01-25T16:42:08;98033.84;;;0.72;100.00
58771;BME280;44539;42.962;1.596;2023-01-25T16:44:34;98033.31;;;0.67;100.00
58771;BME280;44539;42.962;1.596;2023-01-25T16:47:01;98034.22;;;0.66;100.00
58771;BME280;44539;42.962;1.596;2023-01-25T16:49:28;98032.19;;;0.71;100.00
58771;BME280;44539;42.962;1.596;2023-01-25T16:51:58;98032.19;;;0.71;100.00
58771;BME280;44539;42.962;1.596;2023-01-25T16:54:24;98021.00;;;0.69;100.00
58771;BME280;44539;42.962;1.596;2023-01-25T16:56:50;98022.09;;;0.65;100.00
58771;BME280;44539;42.962;1.596;2023-01-25T16:59:17;98025.63;;;0.64;100.00
58771;BME280;44539;42.962;1.596;2023-01-25T17:01:43;98018.16;;;0.57;100.00
58771;BME280;44539;42.962;1.596;2023-01-25T17:04:10;98011.94;;;0.60;100.00
58771;BME280;44539;42.962;1.596;2023-01-25T17:06:38;98013.13;;;0.69;100.00
58771;BME280;44539;42.962;1.596;2023-01-25T17:09:06;98007.91;;;0.69;100.00
58771;BME280;44539;42.962;1.596;2023-01-25T17:11:35;98008.28;;;0.63;100.00
58771;BME280;44539;42.962;1.596;2023-01-25T17:14:01;98009.03;;;0.65;100.00
58771;BME280;44539;42.962;1.596;2023-01-25T17:16:28;98010.06;;;0.62;100.00
58771;BME280;44539;42.962;1.596;2023-01-25T17:18:56;98003.88;;;0.63;100.00
58771;BME280;44539;42.962;1.596;2023-01-25T17:21:23;98000.69;;;0.72;100.00
58771;BME280;44539;42.962;1.596;2023-01-25T17:23:49;97989.13;;;0.76;100.00
58771;BME280;44539;42.962;1.596;2023-01-25T17:26:16;97991.56;;;0.79;100.00
58771;BME280;44539;42.962;1.596;2023-01-25T17:28:43;97988.00;;;0.80;100.00
58771;BME280;44539;42.962;1.596;2023-01-25T17:31:19;97990.09;;;0.90;100.00
58771;BME280;44539;42.962;1.596;2023-01-25T17:33:46;97984.94;;;0.88;100.00
58771;BME280;44539;42.962;1.596;2023-01-25T17:36:12;97984.94;;;0.88;100.00
58771;BME280;44539;42.962;1.596;2023-01-25T17:38:38;97976.25;;;0.88;100.00
58771;BME280;44539;42.962;1.596;2023-01-25T17:41:04;97975.97;;;0.92;100.00
58771;BME280;44539;42.962;1.596;2023-01-25T17:43:30;97981.19;;;0.92;100.00
58771;BME280;44539;42.962;1.596;2023-01-25T17:45:55;97980.16;;;0.95;100.00
58771;BME280;44539;42.962;1.596;2023-01-25T17:48:20;97980.38;;;0.92;100.00
58771;BME280;44539;42.962;1.596;2023-01-25T17:50:46;97985.56;;;1.06;100.00
58771;BME280;44539;42.962;1.596;2023-01-25T17:53:11;97986.81;;;1.00;100.00
58771;BME280;44539;42.962;1.596;2023-01-25T17:55:37;97986.06;;;0.98;100.00
58771;BME280;44539;42.962;1.596;2023-01-25T17:58:04;97989.31;;;1.02;100.00
58771;BME280;44539;42.962;1.596;2023-01-25T18:00:30;97992.56;;;1.06;100.00
58771;BME280;44539;42.962;1.596;2023-01-25T18:15:55;97983.16;;;1.03;100.00
58771;BME280;44539;42.962;1.596;2023-01-25T18:18:20;97977.09;;;1.02;100.00
58771;BME280;44539;42.962;1.596;2023-01-25T18:20:46;97974.25;;;1.06;100.00
58771;BME280;44539;42.962;1.596;2023-01-25T18:23:11;97975.00;;;1.08;100.00
58771;BME280;44539;42.962;1.596;2023-01-25T18:25:37;97973.06;;;1.11;100.00
58771;BME280;44539;42.962;1.596;2023-01-25T18:28:02;97975.22;;;1.05;100.00
58771;BME280;44539;42.962;1.596;2023-01-25T18:32:54;97979.22;;;1.10;100.00
58771;BME280;44539;42.962;1.596;2023-01-25T18:35:19;97963.81;;;1.06;100.00
58771;BME280;44539;42.962;1.596;2023-01-25T18:37:45;97961.72;;;1.11;100.00
58771;BME280;44539;42.962;1.596;2023-01-25T18:40:12;97965.22;;;1.11;100.00
58771;BME280;44539;42.962;1.596;2023-01-25T18:42:38;97946.59;;;1.16;100.00
58771;BME280;44539;42.962;1.596;2023-01-25T18:45:05;97950.69;;;1.20;100.00
58771;BME280;44539;42.962;1.596;2023-01-25T18:47:31;97953.31;;;1.20;100.00
